EDT,Max TemperatureF,Mean TemperatureF,Min TemperatureF,Max Dew PointF,MeanDew PointF,Min DewpointF,Max Humidity, Mean Humidity, Min Humidity, Max Sea Level PressureIn, Mean Sea Level PressureIn, Min Sea Level PressureIn, Max VisibilityMiles, Mean VisibilityMiles, Min VisibilityMiles, Max Wind SpeedMPH, Mean Wind SpeedMPH, Max Gust SpeedMPH,PrecipitationIn, CloudCover, Events, WindDirDegrees
2012-9-1,89,80,71,79,73,70,94,85,62,30.11,30.07,30.03,10,9,3,8,1,,0.00,0,,318
2012-9-2,89,80,71,77,71,68,94,85,59,30.04,30.02,29.96,10,9,2,18,1,22,0.25,1,Rain,128
2012-9-3,84,76,69,77,71,68,94,87,70,30.08,30.03,29.99,10,8,1,8,2,,0.05,2,Rain,138
2012-9-4,84,78,71,77,71,70,94,83,62,30.05,30.00,29.94,10,8,2,9,3,,0.00,2,,173
2012-9-5,86,78,69,79,71,66,94,84,62,29.97,29.92,29.86,10,9,2,8,4,,0.05,2,Rain,178
2012-9-6,89,79,69,77,71,66,94,87,62,29.94,29.91,29.88,10,9,1,12,4,18,0.40,2,Rain,179
2012-9-7,84,76,68,73,69,64,94,85,69,30.00,29.94,29.87,10,8,0,5,0,,0.01,4,Fog,43
2012-9-8,86,78,69,77,71,66,94,84,66,29.88,29.80,29.71,10,7,0,13,4,21,0.42,4,Fog-Rain,177
2012-9-9,75,66,57,68,60,55,94,80,50,29.96,29.88,29.81,10,10,5,10,4,,0.04,4,Rain,348
2012-9-10,73,63,53,59,53,50,94,74,44,30.18,30.06,29.96,10,10,10,13,2,18,0.00,0,,342
2012-9-11,73,62,50,61,52,46,94,75,41,30.32,30.26,30.18,10,10,5,7,1,,0.00,1,,14
2012-9-12,75,62,50,59,52,46,94,74,44,30.38,30.34,30.31,10,10,3,8,1,,0.00,0,,46
2012-9-13,78,64,50,68,59,46,94,81,57,30.36,30.31,30.26,10,10,10,7,2,,0.00,1,Rain,18
2012-9-14,78,69,60,68,63,59,94,80,51,30.28,30.21,30.15,10,10,0,7,1,,0.00,2,Fog,36
2012-9-15,73,64,55,64,59,54,94,81,53,30.19,30.15,30.13,10,9,0,13,2,18,0.00,1,Fog,356
2012-9-16,69,60,51,63,58,50,94,88,64,30.19,30.15,30.11,10,10,4,7,0,,0.06,4,Rain,5
2012-9-17,78,68,59,66,63,57,94,84,61,30.14,30.08,30.00,10,9,2,8,1,,0.03,5,Rain,146
2012-9-18,82,76,69,72,68,66,94,87,70,29.99,29.84,29.76,10,10,1,17,7,34,0.30,3,Rain,167
2012-9-19,69,62,55,68,58,54,94,80,60,30.14,30.02,29.83,10,10,5,13,4,21,0.01,,Rain,4
2012-9-20,71,61,51,63,55,50,94,80,53,30.17,30.12,30.07,10,10,4,9,1,,0.00,,,355
2012-9-21,77,64,51,64,57,50,94,80,47,30.10,30.06,30.01,10,8,1,5,0,,0.00,,,167
2012-9-22,84,70,55,70,62,54,94,79,58,30.02,29.97,29.89,10,9,1,10,4,18,0.00,,,174
2012-9-23,69,60,51,64,53,43,94,68,38,30.15,30.07,29.94,10,10,10,14,4,21,0.00,,,353
2012-9-24,69,56,44,50,46,39,94,71,33,30.23,30.19,30.14,10,10,10,9,2,,0.00,,,360
2012-9-25,73,58,44,57,49,43,94,74,33,30.27,30.22,30.17,10,9,1,8,2,16,0.00,,,169
2012-9-26,80,66,51,64,56,50,94,78,47,30.23,30.19,30.16,10,9,1,8,1,,0.00,,,181
2012-9-27,84,70,57,64,60,54,94,75,42,30.20,30.15,30.09,10,9,1,8,2,,0.00,,,166
2012-9-28,84,70,57,68,62,54,94,77,51,30.12,30.05,29.98,10,8,0,6,2,,0.00,,Fog,179
2012-9-29,68,62,55,63,57,54,94,89,82,30.02,29.98,29.93,10,8,3,8,2,,0.55,8,Rain,7
2012-9-30,71,62,53,61,55,52,94,83,53,29.94,29.91,29.86,10,8,0,4,0,,0.04,3,Fog-Rain,50